Time;durP1;ratioP1;P1;durP2;ratioP2;P2;SDS_P1;SDS_P2;PMS_P1;PMS_P2;Temp;Humidity;BMP_temperature;BMP_pressure;BME280_temperature;BME280_humidity;BME280_pressure;Samples;Min_cycle;Max_cycle;Signal;HPM_P1;HPM_P2
2022/07/19 00:00:24;;;;;;;5.17;2.50;;;20.00;99.90;;;;;;5103166;28;20387;-82
2022/07/19 00:03:08;;;;;;;3.70;2.70;;;19.90;99.90;;;;;;5118498;28;20452;-82
2022/07/19 00:05:53;;;;;;;3.73;2.73;;;19.70;99.90;;;;;;5118348;28;20375;-82
2022/07/19 00:08:37;;;;;;;7.60;3.30;;;19.70;99.90;;;;;;5103352;28;20465;-82
2022/07/19 00:11:22;;;;;;;6.00;3.13;;;19.70;99.90;;;;;;5118904;28;20911;-82
2022/07/19 00:14:06;;;;;;;9.30;3.63;;;19.50;99.90;;;;;;5118655;28;20391;-80
2022/07/19 00:16:50;;;;;;;12.57;4.27;;;19.50;99.90;;;;;;5119609;28;20426;-83
2022/07/19 00:19:35;;;;;;;4.17;3.77;;;19.50;99.90;;;;;;5125394;28;20441;-81
2022/07/19 00:22:19;;;;;;;10.03;4.10;;;19.40;99.90;;;;;;5125367;28;20453;-82
2022/07/19 00:25:05;;;;;;;5.03;4.50;;;19.30;99.90;;;;;;5125667;28;20406;-79
2022/07/19 00:27:49;;;;;;;8.60;4.70;;;19.20;99.90;;;;;;5123921;28;20390;-80
2022/07/19 00:30:34;;;;;;;9.33;3.23;;;19.10;99.90;;;;;;5124669;28;20984;-82
2022/07/19 00:33:18;;;;;;;8.13;3.47;;;19.10;99.90;;;;;;5124753;28;20884;-81
2022/07/19 00:36:03;;;;;;;7.67;4.70;;;18.90;99.90;;;;;;5121174;28;20407;-82
2022/07/19 00:38:47;;;;;;;15.47;4.80;;;18.80;99.90;;;;;;5117863;28;20383;-82
2022/07/19 00:41:31;;;;;;;14.53;5.20;;;18.80;99.90;;;;;;5117786;28;20902;-82
2022/07/19 00:44:16;;;;;;;7.37;4.33;;;18.60;99.90;;;;;;5117643;28;20947;-82
2022/07/19 00:47:02;;;;;;;5.73;4.30;;;18.70;99.90;;;;;;5120600;28;20422;-82
2022/07/19 00:49:47;;;;;;;10.53;4.40;;;18.60;99.90;;;;;;5121767;28;20474;-82
2022/07/19 00:52:33;;;;;;;7.77;4.47;;;18.60;99.90;;;;;;5121600;28;20425;-82
2022/07/19 00:55:19;;;;;;;4.60;2.87;;;18.50;99.90;;;;;;5121180;28;20536;-82
2022/07/19 00:58:03;;;;;;;4.20;3.80;;;18.50;99.90;;;;;;5122335;28;20441;-82
2022/07/19 01:00:48;;;;;;;7.43;3.60;;;18.50;99.90;;;;;;5121753;28;20424;-82
2022/07/19 01:03:38;;;;;;;4.57;4.17;;;18.50;99.90;;;;;;5092041;28;20395;-82
2022/07/19 01:06:22;;;;;;;5.90;4.07;;;18.50;99.90;;;;;;5122629;28;20391;-82
2022/07/19 01:09:07;;;;;;;5.63;3.73;;;18.50;99.90;;;;;;5121823;28;20643;-82
2022/07/19 01:11:51;;;;;;;8.40;3.73;;;18.50;99.90;;;;;;5122278;28;20380;-82
2022/07/19 01:14:36;;;;;;;5.77;3.80;;;18.50;99.90;;;;;;5121547;28;20907;-82
2022/07/19 01:17:20;;;;;;;5.53;3.97;;;18.60;99.90;;;;;;5106075;28;20399;-82
2022/07/19 01:20:05;;;;;;;5.73;3.50;;;18.50;99.90;;;;;;5121598;28;20467;-82
2022/07/19 01:22:50;;;;;;;4.93;3.07;;;18.50;99.90;;;;;;5121802;28;20382;-82
2022/07/19 01:25:36;;;;;;;4.40;3.00;;;18.50;99.90;;;;;;5122096;28;20387;-82
2022/07/19 01:28:20;;;;;;;6.40;2.87;;;18.40;99.90;;;;;;5121720;28;20383;-82
2022/07/19 01:31:05;;;;;;;6.13;3.33;;;18.30;99.90;;;;;;5122007;28;20429;-82
2022/07/19 01:33:49;;;;;;;10.77;5.73;;;18.20;99.90;;;;;;5122145;28;20777;-82
2022/07/19 01:36:34;;;;;;;4.33;3.50;;;18.10;99.90;;;;;;5121357;28;20886;-82
2022/07/19 01:39:18;;;;;;;6.00;3.40;;;17.90;99.90;;;;;;5123685;28;20463;-80
2022/07/19 01:42:03;;;;;;;4.67;2.73;;;17.90;99.90;;;;;;5130144;28;20437;-82
2022/07/19 01:44:48;;;;;;;5.13;3.23;;;17.90;99.90;;;;;;5126804;28;20438;-82
2022/07/19 01:47:32;;;;;;;4.53;3.07;;;17.70;99.90;;;;;;5121384;28;20472;-82
2022/07/19 01:50:18;;;;;;;3.73;3.03;;;17.60;99.90;;;;;;5127101;28;20516;-80
2022/07/19 01:53:02;;;;;;;5.30;3.80;;;17.60;99.90;;;;;;5129399;28;20403;-80
2022/07/19 01:55:46;;;;;;;3.63;3.00;;;17.50;99.90;;;;;;5128919;28;20423;-80
2022/07/19 01:58:31;;;;;;;6.63;4.13;;;17.30;99.90;;;;;;5127730;28;20893;-81
2022/07/19 02:01:16;;;;;;;2.87;2.67;;;17.50;99.90;;;;;;5128955;28;20443;-80
2022/07/19 02:04:00;;;;;;;8.53;4.33;;;17.50;99.90;;;;;;5128284;28;20440;-79
2022/07/19 02:06:44;;;;;;;7.73;3.03;;;17.60;99.90;;;;;;5128912;28;20906;-80
2022/07/19 02:09:28;;;;;;;6.70;4.00;;;17.70;99.90;;;;;;5125274;28;20985;-81
2022/07/19 02:12:13;;;;;;;4.60;2.97;;;17.70;99.90;;;;;;5105206;28;20387;-82
2022/07/19 02:14:57;;;;;;;3.80;3.23;;;17.80;99.90;;;;;;5119914;28;20525;-82
2022/07/19 02:17:41;;;;;;;7.97;2.67;;;17.70;99.90;;;;;;5119855;28;20707;-82
2022/07/19 02:20:26;;;;;;;6.57;3.57;;;17.70;99.90;;;;;;5120674;28;20414;-82
2022/07/19 02:23:11;;;;;;;6.83;2.60;;;17.70;99.90;;;;;;5121037;28;20428;-82
2022/07/19 02:25:55;;;;;;;2.70;2.23;;;17.60;99.90;;;;;;5120691;28;20895;-82
2022/07/19 02:28:39;;;;;;;4.17;3.77;;;17.60;99.90;;;;;;5120340;28;20744;-82
2022/07/19 02:31:23;;;;;;;9.13;4.20;;;17.80;99.90;;;;;;5120342;28;20882;-82
2022/07/19 02:34:08;;;;;;;6.70;4.83;;;17.80;99.90;;;;;;5120594;28;20379;-82
2022/07/19 02:36:52;;;;;;;5.10;2.90;;;17.60;99.90;;;;;;5121994;28;20471;-79
2022/07/19 02:39:37;;;;;;;4.43;3.53;;;17.50;99.90;;;;;;5125934;28;20382;-79
2022/07/19 02:42:21;;;;;;;4.13;2.87;;;17.40;99.90;;;;;;5125563;28;20472;-79
2022/07/19 02:45:05;;;;;;;5.80;3.70;;;17.30;99.90;;;;;;5125654;28;20506;-79
2022/07/19 02:47:50;;;;;;;4.33;3.20;;;17.30;99.90;;;;;;5125802;28;20442;-80
2022/07/19 02:50:35;;;;;;;3.37;3.07;;;17.30;99.90;;;;;;5122165;28;20521;-82
2022/07/19 02:53:20;;;;;;;3.60;2.83;;;17.20;99.90;;;;;;5119952;28;20398;-81
2022/07/19 02:56:05;;;;;;;6.20;2.67;;;17.20;99.90;;;;;;5119447;28;20411;-82
2022/07/19 02:58:50;;;;;;;3.53;3.23;;;17.10;99.90;;;;;;5119072;28;20410;-82
2022/07/19 03:01:34;;;;;;;3.50;3.03;;;17.10;99.90;;;;;;5118503;28;20542;-82
2022/07/19 03:04:18;;;;;;;7.67;2.90;;;17.00;99.90;;;;;;5119660;28;20434;-82
2022/07/19 03:07:02;;;;;;;6.50;3.80;;;17.00;99.90;;;;;;5118893;28;20378;-83
2022/07/19 03:09:47;;;;;;;6.60;3.57;;;17.10;99.90;;;;;;5119016;28;21032;-82
2022/07/19 03:12:31;;;;;;;4.63;3.43;;;17.00;99.90;;;;;;5119729;28;20387;-82
2022/07/19 03:15:16;;;;;;;3.23;2.93;;;16.90;99.90;;;;;;5103998;28;20429;-82
2022/07/19 03:18:01;;;;;;;3.23;2.93;;;16.80;99.90;;;;;;5119551;28;20388;-82
2022/07/19 03:20:46;;;;;;;4.73;3.60;;;16.90;99.90;;;;;;5119823;28;20506;-82
2022/07/19 03:23:32;;;;;;;5.23;3.40;;;16.90;99.90;;;;;;5120250;28;20474;-83
2022/07/19 03:26:16;;;;;;;17.50;4.60;;;17.00;99.90;;;;;;5120015;28;20390;-82
2022/07/19 03:29:01;;;;;;;3.93;3.57;;;17.10;99.90;;;;;;5119248;28;20471;-82
2022/07/19 03:31:46;;;;;;;4.27;3.73;;;17.20;99.90;;;;;;5119459;28;20379;-82
2022/07/19 03:34:31;;;;;;;6.53;3.70;;;17.30;99.90;;;;;;5119401;28;20791;-82
2022/07/19 03:37:15;;;;;;;7.10;3.53;;;17.30;99.90;;;;;;5119091;28;20426;-81
2022/07/19 03:40:01;;;;;;;5.13;2.80;;;17.40;99.90;;;;;;5123488;28;20395;-81
2022/07/19 03:42:45;;;;;;;5.23;2.80;;;17.50;99.90;;;;;;5125447;28;20484;-80
2022/07/19 03:45:33;;;;;;;4.33;3.17;;;17.40;99.90;;;;;;5124800;28;20451;-81
2022/07/19 03:48:18;;;;;;;6.20;2.97;;;17.50;99.90;;;;;;5120547;28;20433;-80
2022/07/19 03:51:02;;;;;;;5.00;4.33;;;17.50;99.90;;;;;;5114158;28;20391;-80
2022/07/19 03:53:47;;;;;;;3.10;2.87;;;17.70;99.90;;;;;;5081526;28;20408;-81
2022/07/19 03:56:32;;;;;;;7.47;3.73;;;18.00;99.90;;;;;;5083310;28;20428;-81
2022/07/19 03:59:16;;;;;;;8.47;3.63;;;18.30;99.90;;;;;;5082735;28;20389;-80
2022/07/19 04:02:01;;;;;;;5.30;3.00;;;18.30;99.90;;;;;;5081600;28;20451;-81
2022/07/19 04:04:45;;;;;;;5.33;3.50;;;18.30;99.90;;;;;;5081326;28;20821;-81
2022/07/19 04:07:29;;;;;;;3.90;2.93;;;18.30;99.90;;;;;;5066686;28;20401;-81
2022/07/19 04:10:14;;;;;;;9.47;3.63;;;18.30;99.90;;;;;;5082452;28;20492;-82
2022/07/19 04:12:59;;;;;;;4.20;3.43;;;18.40;99.90;;;;;;5082516;28;20416;-82
2022/07/19 04:15:43;;;;;;;4.70;3.00;;;18.50;99.90;;;;;;5076841;28;20460;-81
2022/07/19 04:18:27;;;;;;;3.40;3.10;;;18.60;99.90;;;;;;5071599;28;20456;-82
2022/07/19 04:21:12;;;;;;;4.53;3.50;;;18.60;99.90;;;;;;5057745;28;20522;-82
2022/07/19 04:23:56;;;;;;;7.13;3.47;;;18.70;99.90;;;;;;5064057;28;20894;-82
2022/07/19 04:26:41;;;;;;;4.50;3.10;;;18.70;99.90;;;;;;5112338;28;20450;-82
2022/07/19 04:29:26;;;;;;;4.43;2.70;;;18.90;99.90;;;;;;5101298;28;20505;-82
2022/07/19 04:32:10;;;;;;;2.63;2.43;;;18.90;99.90;;;;;;5116145;28;20422;-81
2022/07/19 04:34:55;;;;;;;3.07;2.80;;;18.80;99.90;;;;;;5108072;28;20402;-80
2022/07/19 04:37:41;;;;;;;5.90;2.73;;;18.80;99.90;;;;;;5137873;28;20406;-82
2022/07/19 04:40:25;;;;;;;2.70;2.50;;;18.90;99.90;;;;;;5137903;28;20386;-82
2022/07/19 04:43:09;;;;;;;5.77;3.63;;;18.90;99.90;;;;;;5138368;28;20406;-82
2022/07/19 04:45:54;;;;;;;4.50;3.33;;;19.00;99.90;;;;;;5106320;28;20776;-81
2022/07/19 04:48:40;;;;;;;4.70;3.57;;;19.10;99.90;;;;;;5114851;28;20399;-81
2022/07/19 04:51:25;;;;;;;7.50;4.50;;;19.20;99.90;;;;;;5087673;28;20407;-82
2022/07/19 04:54:09;;;;;;;4.60;3.73;;;19.10;99.90;;;;;;5125373;28;20546;-82
2022/07/19 04:56:53;;;;;;;6.10;4.07;;;19.20;99.90;;;;;;5136502;28;20457;-82
2022/07/19 04:59:37;;;;;;;6.50;4.13;;;19.20;99.90;;;;;;5120090;28;20480;-81
2022/07/19 05:02:21;;;;;;;3.83;3.40;;;19.20;99.90;;;;;;5100801;28;20862;-82
2022/07/19 05:05:06;;;;;;;5.90;3.60;;;19.20;99.90;;;;;;5124922;28;20409;-80
2022/07/19 05:07:51;;;;;;;7.50;4.00;;;19.20;99.90;;;;;;5107371;28;20475;-81
2022/07/19 05:10:35;;;;;;;5.60;3.97;;;19.30;99.90;;;;;;5103508;28;20454;-81
2022/07/19 05:13:19;;;;;;;4.13;3.73;;;19.40;99.90;;;;;;5113951;28;20442;-81
2022/07/19 05:16:04;;;;;;;5.13;3.70;;;19.40;99.90;;;;;;5086298;28;20539;-82
2022/07/19 05:18:48;;;;;;;3.70;3.40;;;19.40;99.90;;;;;;5100561;28;20946;-80
2022/07/19 05:21:33;;;;;;;3.43;3.13;;;19.40;99.90;;;;;;5084109;28;20415;-80
2022/07/19 05:24:17;;;;;;;8.20;3.77;;;19.60;99.90;;;;;;5101861;28;20800;-81
2022/07/19 05:27:02;;;;;;;6.17;3.80;;;19.60;99.90;;;;;;5102386;28;20443;-82
2022/07/19 05:29:46;;;;;;;6.40;3.13;;;19.60;99.90;;;;;;5092382;28;20555;-82
2022/07/19 05:32:30;;;;;;;5.90;3.33;;;19.70;99.90;;;;;;5103951;28;20431;-81
2022/07/19 05:35:14;;;;;;;4.75;3.80;;;19.60;99.90;;;;;;5122375;28;20433;-79
2022/07/19 05:37:59;;;;;;;8.07;4.40;;;19.40;99.90;;;;;;5102044;28;20185;-81
2022/07/19 05:40:43;;;;;;;5.33;3.90;;;19.70;99.90;;;;;;5111049;28;20419;-82
2022/07/19 05:43:27;;;;;;;4.77;3.50;;;19.90;99.90;;;;;;5103952;28;20434;-82
2022/07/19 05:46:12;;;;;;;5.73;3.90;;;19.90;99.90;;;;;;5112289;28;20912;-82
2022/07/19 05:48:56;;;;;;;6.97;4.40;;;19.80;99.90;;;;;;5099344;28;20471;-80
2022/07/19 05:51:41;;;;;;;6.70;3.40;;;19.80;99.90;;;;;;5107413;27;20498;-80
2022/07/19 05:54:26;;;;;;;3.00;2.70;;;19.80;99.90;;;;;;5104824;27;20828;-82
2022/07/19 05:57:10;;;;;;;4.30;3.60;;;19.60;99.90;;;;;;5104779;28;20514;-82
2022/07/19 05:59:54;;;;;;;5.73;5.03;;;19.60;99.90;;;;;;5082307;27;20918;-82
2022/07/19 06:02:38;;;;;;;4.97;3.70;;;19.70;99.90;;;;;;5106686;27;20507;-83
2022/07/19 06:05:22;;;;;;;3.53;3.20;;;19.80;99.90;;;;;;5103951;28;20448;-81
2022/07/19 06:08:06;;;;;;;6.70;4.20;;;19.80;99.90;;;;;;5106514;28;20470;-81
2022/07/19 06:10:51;;;;;;;6.03;3.20;;;19.80;99.90;;;;;;5088773;28;20479;-81
2022/07/19 06:13:36;;;;;;;3.37;3.07;;;19.90;99.90;;;;;;5103905;27;20414;-79
2022/07/19 06:16:21;;;;;;;16.90;4.27;;;20.20;99.90;;;;;;5080244;28;20427;-83
2022/07/19 06:19:07;;;;;;;7.07;3.57;;;20.50;99.90;;;;;;5104875;28;20879;-82
2022/07/19 06:21:52;;;;;;;3.83;3.53;;;20.70;99.90;;;;;;5103648;27;20411;-81
2022/07/19 06:24:36;;;;;;;6.07;3.90;;;20.80;99.90;;;;;;5101297;28;20546;-81
2022/07/19 06:27:40;;;;;;;8.47;4.00;;;20.80;99.90;;;;;;5111673;27;20478;-81
2022/07/19 06:30:25;;;;;;;5.27;3.70;;;21.10;99.90;;;;;;5047162;28;20549;-81
2022/07/19 06:33:10;;;;;;;9.90;3.57;;;21.20;99.90;;;;;;5032803;28;20421;-81
2022/07/19 06:35:54;;;;;;;4.70;3.80;;;21.30;99.90;;;;;;5042596;28;20452;-82
2022/07/19 06:38:39;;;;;;;3.80;3.50;;;21.30;99.90;;;;;;5037082;28;20430;-81
2022/07/19 06:41:23;;;;;;;4.00;3.60;;;21.30;99.90;;;;;;5039727;28;20585;-81
2022/07/19 06:44:08;;;;;;;3.90;3.50;;;21.30;99.90;;;;;;5034643;28;20492;-82
2022/07/19 06:46:53;;;;;;;5.53;3.80;;;21.40;99.90;;;;;;5035372;28;21002;-82
2022/07/19 06:49:37;;;;;;;4.20;3.70;;;21.40;99.90;;;;;;5006517;28;20509;-82
2022/07/19 06:52:22;;;;;;;9.80;3.90;;;21.40;99.90;;;;;;5038006;28;20567;-82
2022/07/19 06:55:07;;;;;;;7.10;3.97;;;21.50;99.90;;;;;;5034784;28;20453;-82
2022/07/19 06:57:51;;;;;;;7.73;3.63;;;21.70;99.90;;;;;;5044506;28;20429;-81
2022/07/19 07:00:36;;;;;;;5.97;5.37;;;21.90;99.90;;;;;;5053019;28;20439;-82
2022/07/19 07:03:20;;;;;;;6.77;4.00;;;21.90;99.90;;;;;;5097067;28;20470;-82
2022/07/19 07:06:04;;;;;;;4.40;3.87;;;22.10;99.90;;;;;;5103232;28;20794;-82
2022/07/19 07:08:48;;;;;;;4.47;3.20;;;22.20;99.90;;;;;;5099182;28;20489;-81
2022/07/19 07:11:32;;;;;;;3.60;3.30;;;22.30;99.90;;;;;;5100352;27;20430;-82
2022/07/19 07:14:18;;;;;;;4.03;3.70;;;22.40;99.90;;;;;;5103107;27;20446;-82
2022/07/19 07:17:02;;;;;;;5.20;4.10;;;22.50;99.90;;;;;;5083470;28;20423;-82
2022/07/19 07:19:46;;;;;;;3.37;3.07;;;22.60;99.90;;;;;;5099086;27;20415;-81
2022/07/19 07:22:31;;;;;;;7.50;4.00;;;22.70;99.90;;;;;;5103576;27;20435;-82
2022/07/19 07:25:16;;;;;;;6.87;3.37;;;22.80;99.90;;;;;;5097283;27;20792;-82
2022/07/19 07:28:00;;;;;;;3.90;3.60;;;22.90;99.90;;;;;;5082869;28;20473;-83
2022/07/19 07:30:44;;;;;;;4.70;3.07;;;23.00;99.90;;;;;;5098872;28;20486;-81
2022/07/19 07:33:29;;;;;;;3.93;3.40;;;23.10;99.90;;;;;;5097691;27;20444;-83
2022/07/19 07:36:13;;;;;;;11.00;3.43;;;23.20;99.90;;;;;;5081294;27;20758;-82
2022/07/19 07:38:58;;;;;;;7.27;3.70;;;23.30;99.90;;;;;;5082645;28;20565;-82
2022/07/19 07:41:43;;;;;;;13.37;3.10;;;23.40;99.90;;;;;;5082425;28;20434;-81
2022/07/19 07:44:29;;;;;;;6.80;3.60;;;23.50;99.90;;;;;;5090853;27;20450;-83
2022/07/19 07:47:13;;;;;;;3.90;3.60;;;23.60;99.90;;;;;;5105193;28;20873;-81
2022/07/19 07:49:58;;;;;;;4.97;3.63;;;23.70;99.90;;;;;;5095638;27;20946;-81
2022/07/19 07:52:42;;;;;;;3.00;2.60;;;23.80;99.90;;;;;;5093392;28;20438;-83
2022/07/19 07:55:27;;;;;;;3.90;3.40;;;23.90;99.90;;;;;;5109063;28;20447;-82
2022/07/19 07:58:12;;;;;;;5.23;2.90;;;24.10;99.90;;;;;;5106985;28;20431;-81
2022/07/19 08:00:59;;;;;;;3.20;2.63;;;24.20;99.90;;;;;;5102322;28;20475;-80
2022/07/19 08:03:45;;;;;;;3.60;3.30;;;24.40;99.90;;;;;;5081926;28;20484;-81
2022/07/19 08:06:29;;;;;;;3.60;3.30;;;24.50;99.90;;;;;;5081914;28;20447;-82
2022/07/19 08:09:14;;;;;;;4.80;2.70;;;24.90;99.90;;;;;;5081528;28;20451;-83
2022/07/19 08:11:59;;;;;;;3.63;3.10;;;25.30;99.80;;;;;;5080407;28;20780;-82
2022/07/19 08:14:43;;;;;;;3.00;2.70;;;25.40;98.50;;;;;;5078979;28;20464;-80
2022/07/19 08:17:28;;;;;;;2.97;2.70;;;25.40;97.60;;;;;;5086543;28;20447;-83
2022/07/19 08:20:13;;;;;;;2.93;2.73;;;25.50;98.60;;;;;;5077778;28;20602;-81
2022/07/19 08:22:57;;;;;;;2.73;2.53;;;25.60;96.30;;;;;;5085366;28;20986;-81
2022/07/19 08:25:42;;;;;;;4.33;2.63;;;25.70;96.00;;;;;;5082144;28;20434;-82
2022/07/19 08:28:27;;;;;;;2.60;2.40;;;26.00;94.00;;;;;;5086420;28;20460;-81
2022/07/19 08:31:11;;;;;;;2.80;2.60;;;26.20;92.90;;;;;;5068840;28;20924;-83
2022/07/19 08:33:55;;;;;;;7.00;3.00;;;26.20;92.80;;;;;;5071943;28;20564;-81
2022/07/19 08:36:40;;;;;;;4.53;2.70;;;26.40;92.60;;;;;;5080923;28;20496;-80
2022/07/19 08:39:27;;;;;;;2.90;2.40;;;26.40;92.00;;;;;;5081515;28;20508;-82
2022/07/19 08:42:32;;;;;;;8.07;2.90;;;26.40;93.60;;;;;;5003468;28;20444;-80
2022/07/19 08:45:16;;;;;;;3.57;3.27;;;26.40;92.50;;;;;;5039360;28;21013;-81
2022/07/19 08:48:03;;;;;;;2.40;2.20;;;26.40;91.90;;;;;;5037258;28;20566;-82
2022/07/19 08:50:52;;;;;;;2.80;2.57;;;26.40;91.70;;;;;;5040597;28;20465;-81
2022/07/19 08:53:40;;;;;;;3.83;3.43;;;26.70;90.60;;;;;;5026910;28;21858;-82
2022/07/19 08:59:19;;;;;;;3.77;3.40;;;27.30;88.20;;;;;;5037293;28;20438;-83
2022/07/19 09:02:03;;;;;;;3.80;2.63;;;27.20;88.00;;;;;;5035519;28;20541;-81
2022/07/19 09:05:07;;;;;;;5.07;3.40;;;27.30;86.30;;;;;;5024908;28;20449;-82
2022/07/19 09:08:14;;;;;;;4.70;3.83;;;27.30;84.40;;;;;;5045713;28;20461;-82
2022/07/19 09:11:14;;;;;;;3.60;3.30;;;27.30;87.20;;;;;;5043128;28;20465;-82
2022/07/19 09:14:05;;;;;;;2.80;2.60;;;27.40;87.40;;;;;;5040673;28;20504;-82
2022/07/19 09:17:01;;;;;;;5.80;2.80;;;27.80;83.80;;;;;;5046884;28;20487;-82
2022/07/19 09:19:51;;;;;;;3.03;2.83;;;27.80;81.00;;;;;;5059829;28;20792;-83
2022/07/19 09:22:38;;;;;;;3.67;3.03;;;27.70;82.20;;;;;;5099203;28;20929;-82
2022/07/19 09:25:41;;;;;;;2.70;2.50;;;27.80;81.30;;;;;;5105012;28;20430;-82
2022/07/19 09:28:27;;;;;;;3.77;2.50;;;28.00;79.70;;;;;;5105902;27;20448;-82
2022/07/19 09:31:11;;;;;;;4.33;2.50;;;27.90;77.70;;;;;;5106775;28;20481;-82
2022/07/19 09:33:55;;;;;;;3.23;3.03;;;28.30;79.40;;;;;;5091272;28;20421;-82
2022/07/19 09:36:40;;;;;;;2.53;2.20;;;28.20;72.80;;;;;;5090096;28;20425;-82
2022/07/19 09:39:28;;;;;;;4.33;2.90;;;28.20;71.20;;;;;;5104593;28;20859;-81
2022/07/19 09:42:16;;;;;;;3.43;2.83;;;28.50;72.30;;;;;;5112082;27;21675;-81
2022/07/19 09:45:10;;;;;;;3.43;2.87;;;28.50;70.80;;;;;;5104695;27;20470;-82
2022/07/19 09:47:56;;;;;;;5.60;3.10;;;28.60;68.80;;;;;;5104945;27;20491;-81
2022/07/19 09:50:41;;;;;;;3.23;2.33;;;28.90;67.40;;;;;;5109258;27;21029;-81
2022/07/19 09:53:26;;;;;;;3.17;2.77;;;29.00;67.00;;;;;;5084245;28;20931;-83
2022/07/19 09:56:10;;;;;;;2.60;2.40;;;28.90;68.80;;;;;;5104953;28;20451;-82
2022/07/19 09:58:57;;;;;;;2.90;2.60;;;28.90;68.80;;;;;;5104294;27;20426;-80
2022/07/19 10:01:43;;;;;;;2.70;2.50;;;28.90;65.40;;;;;;5088131;27;20459;-80
2022/07/19 10:04:27;;;;;;;3.60;3.30;;;29.00;63.80;;;;;;5102271;27;20422;-81
2022/07/19 10:07:13;;;;;;;2.90;2.10;;;29.20;64.70;;;;;;5107269;28;20753;-81
2022/07/19 10:10:03;;;;;;;2.30;2.10;;;29.40;61.50;;;;;;5100653;27;20494;-81
2022/07/19 10:12:50;;;;;;;3.97;2.37;;;29.60;60.30;;;;;;5085363;28;20911;-81
2022/07/19 10:15:39;;;;;;;4.03;3.63;;;29.70;59.40;;;;;;5110505;27;20413;-82
2022/07/19 10:18:32;;;;;;;2.97;2.73;;;30.00;58.10;;;;;;5091604;28;20466;-82
2022/07/19 10:21:17;;;;;;;4.07;2.73;;;30.10;58.50;;;;;;5095850;28;20458;-80
2022/07/19 10:24:02;;;;;;;3.40;3.07;;;30.10;58.10;;;;;;5063789;28;20418;-81
2022/07/19 10:26:55;;;;;;;4.13;3.53;;;30.20;58.30;;;;;;5098037;28;20483;-80
2022/07/19 10:29:43;;;;;;;4.63;2.70;;;30.30;58.40;;;;;;5098571;28;20461;-82
2022/07/19 10:32:30;;;;;;;2.93;2.67;;;30.60;58.60;;;;;;5048958;28;20603;-79
2022/07/19 10:35:19;;;;;;;4.37;3.07;;;30.70;56.90;;;;;;5096554;27;21019;-81
2022/07/19 10:38:12;;;;;;;3.17;2.80;;;30.80;56.90;;;;;;5090196;28;20454;-82
2022/07/19 10:40:58;;;;;;;3.53;3.23;;;30.70;56.00;;;;;;5080892;27;20976;-82
2022/07/19 10:44:10;;;;;;;6.43;2.43;;;30.70;56.60;;;;;;5081683;28;20430;-82
2022/07/19 10:46:57;;;;;;;6.10;2.63;;;30.80;55.40;;;;;;5096648;28;20561;-82
2022/07/19 10:50:05;;;;;;;3.03;2.83;;;30.90;55.00;;;;;;5085667;28;20897;-81
2022/07/19 10:52:52;;;;;;;2.43;2.23;;;31.00;55.40;;;;;;4979786;28;20438;-83
2022/07/19 10:55:38;;;;;;;3.90;3.50;;;31.10;54.50;;;;;;4985299;28;20454;-83
2022/07/19 10:58:28;;;;;;;3.03;2.73;;;31.30;55.20;;;;;;4996046;28;20971;-82
2022/07/19 11:01:23;;;;;;;2.90;2.57;;;31.40;54.20;;;;;;4941878;29;20469;-83
2022/07/19 11:04:34;;;;;;;2.37;2.17;;;31.40;54.40;;;;;;4905040;29;20589;-82
2022/07/19 11:07:23;;;;;;;2.23;2.03;;;31.40;53.70;;;;;;4893509;29;20475;-82
2022/07/19 11:10:33;;;;;;;2.40;2.20;;;31.50;55.20;;;;;;4905744;29;20501;-83
2022/07/19 11:13:39;;;;;;;3.00;2.70;;;31.60;54.50;;;;;;4905417;29;20436;-82
2022/07/19 11:16:48;;;;;;;4.13;2.87;;;31.80;54.70;;;;;;4865368;29;20493;-82
2022/07/19 11:19:36;;;;;;;3.00;2.70;;;31.90;54.60;;;;;;4825490;29;20458;-82
2022/07/19 11:22:42;;;;;;;3.13;2.60;;;32.20;54.70;;;;;;4846752;29;21139;-82
2022/07/19 11:25:34;;;;;;;2.90;2.60;;;32.10;53.10;;;;;;4810424;29;20470;-82
2022/07/19 11:28:22;;;;;;;4.10;3.07;;;32.30;53.10;;;;;;4776446;29;20559;-82
2022/07/19 11:31:14;;;;;;;4.93;3.40;;;32.10;54.70;;;;;;4818967;29;20982;-82
2022/07/19 11:34:01;;;;;;;4.20;3.27;;;32.20;53.80;;;;;;4810675;29;20532;-82
2022/07/19 11:36:57;;;;;;;3.07;2.87;;;32.30;53.50;;;;;;4778168;29;20444;-82
2022/07/19 11:40:10;;;;;;;4.27;3.97;;;32.40;53.20;;;;;;4814625;29;20520;-82
2022/07/19 11:43:05;;;;;;;3.47;3.17;;;32.40;52.70;;;;;;4800688;29;20521;-83
2022/07/19 11:45:53;;;;;;;3.27;2.97;;;32.80;52.90;;;;;;4809031;29;20237;-83
2022/07/19 11:48:39;;;;;;;2.90;2.60;;;33.20;51.30;;;;;;4802896;29;20701;-81
2022/07/19 11:51:28;;;;;;;6.18;2.63;;;33.00;50.40;;;;;;4826995;29;20331;-82
2022/07/19 11:54:24;;;;;;;3.10;2.90;;;33.50;50.90;;;;;;4874120;29;20219;-83
2022/07/19 11:57:28;;;;;;;3.10;2.90;;;33.40;51.70;;;;;;4901747;29;20274;-82
2022/07/19 12:00:17;;;;;;;3.42;3.13;;;33.40;50.20;;;;;;4910931;29;20249;-82
2022/07/19 12:03:08;;;;;;;4.30;2.90;;;33.40;49.90;;;;;;4867827;29;20309;-83
2022/07/19 12:05:58;;;;;;;3.60;3.30;;;33.40;51.00;;;;;;4866875;29;20204;-83
2022/07/19 12:08:46;;;;;;;3.28;2.97;;;33.20;50.60;;;;;;4861966;29;20397;-84
2022/07/19 12:11:40;;;;;;;3.05;2.85;;;33.40;52.10;;;;;;4851342;29;20254;-83
2022/07/19 12:14:29;;;;;;;9.90;3.00;;;33.60;50.00;;;;;;4859147;29;20793;-82
2022/07/19 12:17:40;;;;;;;3.00;2.80;;;33.70;56.80;;;;;;4818656;29;20217;-83
2022/07/19 12:21:07;;;;;;;2.80;2.60;;;33.70;49.50;;;;;;4760349;30;20607;-83
2022/07/19 12:24:11;;;;;;;2.47;2.28;;;34.20;48.90;;;;;;4757668;30;20244;-83
2022/07/19 12:27:04;;;;;;;6.13;3.58;;;34.30;48.80;;;;;;4768200;29;20199;-83
2022/07/19 12:29:50;;;;;;;5.07;3.22;;;34.20;48.70;;;;;;4761210;30;20248;-83
2022/07/19 12:32:43;;;;;;;3.50;3.28;;;34.10;47.20;;;;;;4772817;30;20290;-83
2022/07/19 12:35:42;;;;;;;3.70;3.00;;;34.40;46.30;;;;;;4775228;29;20303;-83
2022/07/19 12:38:47;;;;;;;3.75;2.90;;;34.30;44.90;;;;;;4782815;30;20195;-83
2022/07/19 12:42:18;;;;;;;4.65;3.13;;;34.80;46.70;;;;;;4800419;29;20603;-85
2022/07/19 12:45:05;;;;;;;3.00;2.80;;;34.50;46.00;;;;;;4786948;29;20219;-82
2022/07/19 12:47:55;;;;;;;3.45;3.05;;;34.80;45.50;;;;;;4810237;29;20312;-82
2022/07/19 12:50:48;;;;;;;5.97;3.53;;;34.70;47.90;;;;;;4821784;29;20198;-82
2022/07/19 12:53:32;;;;;;;7.75;3.63;;;35.20;45.90;;;;;;4870709;29;20233;-82
2022/07/19 12:56:17;;;;;;;7.95;3.35;;;35.40;45.40;;;;;;4839113;29;20270;-82
2022/07/19 13:02:03;;;;;;;4.47;3.35;;;35.10;44.90;;;;;;4856918;29;20228;-82
2022/07/19 13:05:08;;;;;;;5.20;4.22;;;35.30;45.00;;;;;;4853840;29;20208;-84
2022/07/19 13:07:54;;;;;;;3.05;2.85;;;35.40;44.00;;;;;;4854893;29;20254;-84
2022/07/19 13:10:38;;;;;;;5.47;4.40;;;35.70;42.70;;;;;;4849848;29;20733;-83
2022/07/19 13:13:23;;;;;;;10.07;5.40;;;36.00;43.40;;;;;;4877133;29;20714;-83
2022/07/19 13:16:09;;;;;;;6.63;3.50;;;36.50;43.40;;;;;;4892163;29;20252;-83
2022/07/19 13:18:56;;;;;;;4.53;3.47;;;36.40;43.50;;;;;;4901269;29;20210;-83
2022/07/19 13:21:40;;;;;;;3.47;3.17;;;37.20;42.20;;;;;;4912760;29;20199;-82
2022/07/19 13:24:25;;;;;;;6.05;3.42;;;36.10;41.10;;;;;;4913221;29;20234;-82
2022/07/19 13:27:11;;;;;;;4.40;4.00;;;36.10;42.90;;;;;;4969335;28;20204;-82
2022/07/19 13:30:15;;;;;;;7.63;3.35;;;35.50;42.70;;;;;;5004580;28;20197;-82
2022/07/19 13:33:03;;;;;;;4.00;3.60;;;35.60;42.40;;;;;;4984271;28;20192;-82
2022/07/19 13:35:49;;;;;;;5.28;3.50;;;36.10;42.10;;;;;;4968919;28;20239;-83
2022/07/19 13:38:38;;;;;;;3.53;3.22;;;35.90;41.40;;;;;;4983441;28;20196;-81
2022/07/19 13:41:26;;;;;;;3.25;2.95;;;36.00;42.20;;;;;;4917648;29;20299;-84
2022/07/19 13:44:10;;;;;;;4.63;4.22;;;36.60;45.40;;;;;;4907745;29;20251;-82
2022/07/19 13:46:55;;;;;;;3.00;2.70;;;36.80;41.40;;;;;;4905500;29;20343;-82
2022/07/19 13:49:40;;;;;;;4.47;4.07;;;37.30;41.70;;;;;;4895811;29;20229;-83
2022/07/19 13:52:33;;;;;;;5.07;3.63;;;36.50;40.40;;;;;;4894178;29;20629;-82
2022/07/19 13:55:18;;;;;;;2.90;2.70;;;36.60;41.80;;;;;;4881099;29;20480;-81
2022/07/19 13:58:02;;;;;;;6.63;3.55;;;37.00;41.60;;;;;;4882667;29;20238;-80
2022/07/19 14:00:47;;;;;;;12.73;4.00;;;35.90;40.80;;;;;;4917576;29;20684;-84
2022/07/19 14:03:31;;;;;;;4.65;3.47;;;36.10;41.20;;;;;;4972018;28;20223;-83
2022/07/19 14:06:16;;;;;;;3.83;3.42;;;36.10;41.70;;;;;;5000599;28;20196;-82
2022/07/19 14:09:01;;;;;;;4.13;3.65;;;36.00;43.00;;;;;;4985750;28;20201;-83
2022/07/19 14:11:47;;;;;;;4.32;2.83;;;35.80;41.30;;;;;;5014622;28;20202;-83
2022/07/19 14:14:31;;;;;;;3.38;3.10;;;36.00;41.50;;;;;;5031900;28;20691;-82
2022/07/19 14:17:16;;;;;;;3.92;3.20;;;36.00;41.60;;;;;;5029023;28;20214;-83
2022/07/19 14:20:01;;;;;;;3.40;3.10;;;36.10;42.00;;;;;;5026992;28;20218;-83
2022/07/19 14:22:45;;;;;;;7.53;4.25;;;36.60;41.90;;;;;;5069626;28;20193;-82
2022/07/19 14:25:29;;;;;;;3.65;3.35;;;36.60;40.60;;;;;;5083660;28;20184;-81
2022/07/19 14:28:14;;;;;;;3.85;3.22;;;36.60;40.80;;;;;;5076303;28;20192;-80
2022/07/19 14:30:58;;;;;;;4.55;3.78;;;36.70;40.70;;;;;;5083399;28;20203;-82
2022/07/19 14:33:43;;;;;;;5.28;3.63;;;36.30;40.50;;;;;;5073010;28;20766;-83